sensor_id;sensor_type;location;lat;lon;timestamp;pressure;altitude;pressure_sealevel;temperature;humidity
5298;BME280;14738;42.668;23.250;2023-03-05T00:01:27;48541.19;;;-141.90;100.00
5298;BME280;14738;42.668;23.250;2023-03-05T00:03:54;48525.31;;;-141.90;100.00
5298;BME280;14738;42.668;23.250;2023-03-05T00:06:22;48545.16;;;-141.90;100.00
5298;BME280;14738;42.668;23.250;2023-03-05T00:08:48;48561.03;;;-141.90;100.00
5298;BME280;14738;42.668;23.250;2023-03-05T00:11:15;48529.28;;;-141.90;100.00
5298;BME280;14738;42.668;23.250;2023-03-05T00:13:41;48541.19;;;-141.90;100.00
5298;BME280;14738;42.668;23.250;2023-03-05T00:16:10;48529.28;;;-141.90;100.00
5298;BME280;14738;42.668;23.250;2023-03-05T00:18:36;48545.16;;;-141.90;100.00
5298;BME280;14738;42.668;23.250;2023-03-05T00:21:03;48535.22;;;-141.90;100.00
5298;BME280;14738;42.668;23.250;2023-03-05T00:23:29;48533.25;;;-141.90;100.00
5298;BME280;14738;42.668;23.250;2023-03-05T00:25:54;48545.16;;;-141.90;100.00
5298;BME280;14738;42.668;23.250;2023-03-05T00:28:19;48549.13;;;-141.90;100.00
5298;BME280;14738;42.668;23.250;2023-03-05T00:30:45;48557.06;;;-141.90;100.00
5298;BME280;14738;42.668;23.250;2023-03-05T00:33:11;48551.09;;;-141.90;100.00
5298;BME280;14738;42.668;23.250;2023-03-05T00:35:43;48563.03;;;-141.90;100.00
5298;BME280;14738;42.668;23.250;2023-03-05T00:38:09;48568.97;;;-141.90;100.00
5298;BME280;14738;42.668;23.250;2023-03-05T00:40:39;48551.09;;;-141.90;100.00
5298;BME280;14738;42.668;23.250;2023-03-05T00:43:05;48527.28;;;-141.90;100.00
5298;BME280;14738;42.668;23.250;2023-03-05T00:45:56;48541.19;;;-141.90;100.00
5298;BME280;14738;42.668;23.250;2023-03-05T00:48:21;48531.25;;;-141.90;100.00
5298;BME280;14738;42.668;23.250;2023-03-05T00:50:47;48549.13;;;-141.90;100.00
5298;BME280;14738;42.668;23.250;2023-03-05T00:53:13;48557.06;;;-141.90;100.00
5298;BME280;14738;42.668;23.250;2023-03-05T00:55:38;48529.28;;;-141.90;100.00
5298;BME280;14738;42.668;23.250;2023-03-05T00:58:04;48503.47;;;-141.90;100.00
5298;BME280;14738;42.668;23.250;2023-03-05T01:00:29;48529.28;;;-141.90;100.00
5298;BME280;14738;42.668;23.250;2023-03-05T01:02:55;48535.22;;;-141.90;100.00
5298;BME280;14738;42.668;23.250;2023-03-05T01:05:20;48509.41;;;-141.90;100.00
5298;BME280;14738;42.668;23.250;2023-03-05T01:07:46;48493.53;;;-141.90;100.00
5298;BME280;14738;42.668;23.250;2023-03-05T01:10:12;48565.00;;;-141.90;100.00
5298;BME280;14738;42.668;23.250;2023-03-05T01:12:37;48572.94;;;-141.90;100.00
5298;BME280;14738;42.668;23.250;2023-03-05T01:15:04;48559.06;;;-141.90;100.00
5298;BME280;14738;42.668;23.250;2023-03-05T01:17:30;48477.66;;;-141.90;100.00
5298;BME280;14738;42.668;23.250;2023-03-05T01:19:55;48553.09;;;-141.90;100.00
5298;BME280;14738;42.668;23.250;2023-03-05T01:22:21;48521.34;;;-141.90;100.00
5298;BME280;14738;42.668;23.250;2023-03-05T01:24:46;48537.22;;;-141.90;100.00
5298;BME280;14738;42.668;23.250;2023-03-05T01:27:12;48541.19;;;-141.90;100.00
5298;BME280;14738;42.668;23.250;2023-03-05T01:29:37;48553.09;;;-141.90;100.00
5298;BME280;14738;42.668;23.250;2023-03-05T01:32:03;48533.25;;;-141.90;100.00
5298;BME280;14738;42.668;23.250;2023-03-05T01:34:29;48529.28;;;-141.90;100.00
5298;BME280;14738;42.668;23.250;2023-03-05T01:36:54;48565.00;;;-141.90;100.00
5298;BME280;14738;42.668;23.250;2023-03-05T01:39:19;48572.94;;;-141.90;100.00
5298;BME280;14738;42.668;23.250;2023-03-05T01:41:46;48537.22;;;-141.90;100.00
5298;BME280;14738;42.668;23.250;2023-03-05T01:44:23;48533.25;;;-141.90;100.00
5298;BME280;14738;42.668;23.250;2023-03-05T01:46:49;48529.28;;;-141.90;100.00
5298;BME280;14738;42.668;23.250;2023-03-05T01:49:29;48539.19;;;-141.90;100.00
5298;BME280;14738;42.668;23.250;2023-03-05T01:52:13;48561.03;;;-141.90;100.00
5298;BME280;14738;42.668;23.250;2023-03-05T01:54:55;48549.13;;;-141.90;100.00
5298;BME280;14738;42.668;23.250;2023-03-05T01:57:25;48529.28;;;-141.90;100.00
5298;BME280;14738;42.668;23.250;2023-03-05T01:59:57;48541.19;;;-141.90;100.00
5298;BME280;14738;42.668;23.250;2023-03-05T02:02:24;48541.19;;;-141.90;100.00
5298;BME280;14738;42.668;23.250;2023-03-05T02:04:55;48551.09;;;-141.90;100.00
5298;BME280;14738;42.668;23.250;2023-03-05T02:07:23;48533.25;;;-141.90;100.00
5298;BME280;14738;42.668;23.250;2023-03-05T02:09:49;48537.22;;;-141.90;100.00
5298;BME280;14738;42.668;23.250;2023-03-05T02:12:15;48570.97;;;-141.90;100.00
5298;BME280;14738;42.668;23.250;2023-03-05T02:14:44;48555.09;;;-141.90;100.00
5298;BME280;14738;42.668;23.250;2023-03-05T02:17:10;48527.28;;;-141.90;100.00
5298;BME280;14738;42.668;23.250;2023-03-05T02:19:47;48545.16;;;-141.90;100.00
5298;BME280;14738;42.668;23.250;2023-03-05T02:22:14;48515.38;;;-141.90;100.00
5298;BME280;14738;42.668;23.250;2023-03-05T02:24:39;48509.41;;;-141.90;100.00
5298;BME280;14738;42.668;23.250;2023-03-05T02:27:05;48525.31;;;-141.90;100.00
5298;BME280;14738;42.668;23.250;2023-03-05T02:29:31;48580.88;;;-141.90;100.00
5298;BME280;14738;42.668;23.250;2023-03-05T02:31:59;48559.06;;;-141.90;100.00
5298;BME280;14738;42.668;23.250;2023-03-05T02:34:25;48537.22;;;-141.90;100.00
5298;BME280;14738;42.668;23.250;2023-03-05T02:36:50;48529.28;;;-141.90;100.00
5298;BME280;14738;42.668;23.250;2023-03-05T02:39:16;48545.16;;;-141.90;100.00
5298;BME280;14738;42.668;23.250;2023-03-05T02:41:41;48557.06;;;-141.90;100.00
5298;BME280;14738;42.668;23.250;2023-03-05T02:44:07;48559.06;;;-141.90;100.00
5298;BME280;14738;42.668;23.250;2023-03-05T02:46:33;48568.97;;;-141.90;100.00
5298;BME280;14738;42.668;23.250;2023-03-05T02:48:59;48497.50;;;-141.90;100.00
5298;BME280;14738;42.668;23.250;2023-03-05T02:51:24;48561.03;;;-141.90;100.00
5298;BME280;14738;42.668;23.250;2023-03-05T02:53:50;48539.19;;;-141.90;100.00
5298;BME280;14738;42.668;23.250;2023-03-05T02:56:15;48545.16;;;-141.90;100.00
5298;BME280;14738;42.668;23.250;2023-03-05T02:58:41;48570.97;;;-141.90;100.00
5298;BME280;14738;42.668;23.250;2023-03-05T03:01:08;48549.13;;;-141.90;100.00
5298;BME280;14738;42.668;23.250;2023-03-05T03:03:34;48572.94;;;-141.90;100.00
5298;BME280;14738;42.668;23.250;2023-03-05T03:06:00;48549.13;;;-141.90;100.00
5298;BME280;14738;42.668;23.250;2023-03-05T03:08:25;48545.16;;;-141.90;100.00
5298;BME280;14738;42.668;23.250;2023-03-05T03:10:51;48525.31;;;-141.90;100.00
5298;BME280;14738;42.668;23.250;2023-03-05T03:13:16;48519.34;;;-141.90;100.00
5298;BME280;14738;42.668;23.250;2023-03-05T03:15:41;48545.16;;;-141.90;100.00
5298;BME280;14738;42.668;23.250;2023-03-05T03:18:07;48541.19;;;-141.90;100.00
5298;BME280;14738;42.668;23.250;2023-03-05T03:20:32;48584.84;;;-141.90;100.00
5298;BME280;14738;42.668;23.250;2023-03-05T03:22:59;48545.16;;;-141.90;100.00
5298;BME280;14738;42.668;23.250;2023-03-05T03:25:25;48533.25;;;-141.90;100.00
5298;BME280;14738;42.668;23.250;2023-03-05T03:27:50;48561.03;;;-141.90;100.00
5298;BME280;14738;42.668;23.250;2023-03-05T03:30:16;48561.03;;;-141.90;100.00
5298;BME280;14738;42.668;23.250;2023-03-05T03:32:41;48545.16;;;-141.90;100.00
5298;BME280;14738;42.668;23.250;2023-03-05T03:35:08;48553.09;;;-141.90;100.00
5298;BME280;14738;42.668;23.250;2023-03-05T03:37:34;48533.25;;;-141.90;100.00
5298;BME280;14738;42.668;23.250;2023-03-05T03:39:59;48549.13;;;-141.90;100.00
5298;BME280;14738;42.668;23.250;2023-03-05T03:42:25;48570.97;;;-141.90;100.00
5298;BME280;14738;42.668;23.250;2023-03-05T03:44:50;48565.00;;;-141.90;100.00
5298;BME280;14738;42.668;23.250;2023-03-05T03:47:16;48565.00;;;-141.90;100.00
5298;BME280;14738;42.668;23.250;2023-03-05T03:49:41;48547.13;;;-141.90;100.00
5298;BME280;14738;42.668;23.250;2023-03-05T03:52:07;48561.03;;;-141.90;100.00
5298;BME280;14738;42.668;23.250;2023-03-05T03:54:32;48535.22;;;-141.90;100.00
5298;BME280;14738;42.668;23.250;2023-03-05T03:56:58;48545.16;;;-141.90;100.00
5298;BME280;14738;42.668;23.250;2023-03-05T03:59:23;48572.94;;;-141.90;100.00
5298;BME280;14738;42.668;23.250;2023-03-05T04:01:49;48549.13;;;-141.90;100.00
5298;BME280;14738;42.668;23.250;2023-03-05T04:04:15;48567.00;;;-141.90;100.00
5298;BME280;14738;42.668;23.250;2023-03-05T04:06:40;48559.06;;;-141.90;100.00
5298;BME280;14738;42.668;23.250;2023-03-05T04:09:06;48561.03;;;-141.90;100.00
5298;BME280;14738;42.668;23.250;2023-03-05T04:11:33;48553.09;;;-141.90;100.00
5298;BME280;14738;42.668;23.250;2023-03-05T04:13:58;48561.03;;;-141.90;100.00
5298;BME280;14738;42.668;23.250;2023-03-05T04:16:24;48549.13;;;-141.90;100.00
5298;BME280;14738;42.668;23.250;2023-03-05T04:18:49;48533.25;;;-141.90;100.00
5298;BME280;14738;42.668;23.250;2023-03-05T04:21:15;48551.09;;;-141.90;100.00
5298;BME280;14738;42.668;23.250;2023-03-05T04:23:40;48557.06;;;-141.90;100.00
5298;BME280;14738;42.668;23.250;2023-03-05T04:26:06;48547.13;;;-141.90;100.00
5298;BME280;14738;42.668;23.250;2023-03-05T04:28:31;48574.94;;;-141.90;100.00
5298;BME280;14738;42.668;23.250;2023-03-05T04:30:57;48565.00;;;-141.90;100.00
5298;BME280;14738;42.668;23.250;2023-03-05T04:33:22;48519.34;;;-141.90;100.00
5298;BME280;14738;42.668;23.250;2023-03-05T04:35:48;48531.25;;;-141.90;100.00
5298;BME280;14738;42.668;23.250;2023-03-05T04:38:14;48592.81;;;-141.90;100.00
5298;BME280;14738;42.668;23.250;2023-03-05T04:40:39;48563.03;;;-141.90;100.00
5298;BME280;14738;42.668;23.250;2023-03-05T04:43:05;48549.13;;;-141.90;100.00
5298;BME280;14738;42.668;23.250;2023-03-05T04:45:31;48561.03;;;-141.90;100.00
5298;BME280;14738;42.668;23.250;2023-03-05T04:47:57;48545.16;;;-141.90;100.00
5298;BME280;14738;42.668;23.250;2023-03-05T04:50:22;48555.09;;;-141.90;100.00
5298;BME280;14738;42.668;23.250;2023-03-05T04:52:48;48563.03;;;-141.90;100.00
5298;BME280;14738;42.668;23.250;2023-03-05T04:55:14;48547.13;;;-141.90;100.00
5298;BME280;14738;42.668;23.250;2023-03-05T04:57:41;48557.06;;;-141.90;100.00
5298;BME280;14738;42.668;23.250;2023-03-05T05:00:11;48553.09;;;-141.90;100.00
5298;BME280;14738;42.668;23.250;2023-03-05T05:02:39;48565.00;;;-141.90;100.00
5298;BME280;14738;42.668;23.250;2023-03-05T05:05:06;48521.34;;;-141.90;100.00
5298;BME280;14738;42.668;23.250;2023-03-05T05:07:32;48565.00;;;-141.90;100.00
5298;BME280;14738;42.668;23.250;2023-03-05T05:09:57;48547.13;;;-141.90;100.00
5298;BME280;14738;42.668;23.250;2023-03-05T05:12:23;48539.19;;;-141.90;100.00
5298;BME280;14738;42.668;23.250;2023-03-05T05:14:48;48572.94;;;-141.90;100.00
5298;BME280;14738;42.668;23.250;2023-03-05T05:17:13;48541.19;;;-141.90;100.00
5298;BME280;14738;42.668;23.250;2023-03-05T05:19:39;48533.25;;;-141.90;100.00
5298;BME280;14738;42.668;23.250;2023-03-05T05:22:04;48561.03;;;-141.90;100.00
5298;BME280;14738;42.668;23.250;2023-03-05T05:24:30;48557.06;;;-141.90;100.00
5298;BME280;14738;42.668;23.250;2023-03-05T05:26:55;48537.22;;;-141.90;100.00
5298;BME280;14738;42.668;23.250;2023-03-05T05:29:22;48541.19;;;-141.90;100.00
5298;BME280;14738;42.668;23.250;2023-03-05T05:31:48;48565.00;;;-141.90;100.00
5298;BME280;14738;42.668;23.250;2023-03-05T05:34:14;48553.09;;;-141.90;100.00
5298;BME280;14738;42.668;23.250;2023-03-05T05:36:40;48541.19;;;-141.90;100.00
5298;BME280;14738;42.668;23.250;2023-03-05T05:39:05;48541.19;;;-141.90;100.00
5298;BME280;14738;42.668;23.250;2023-03-05T05:41:31;48549.13;;;-141.90;100.00
5298;BME280;14738;42.668;23.250;2023-03-05T05:43:56;48551.09;;;-141.90;100.00
5298;BME280;14738;42.668;23.250;2023-03-05T05:46:22;48561.03;;;-141.90;100.00
5298;BME280;14738;42.668;23.250;2023-03-05T05:48:48;48541.19;;;-141.90;100.00
5298;BME280;14738;42.668;23.250;2023-03-05T05:51:19;48537.22;;;-141.90;100.00
5298;BME280;14738;42.668;23.250;2023-03-05T05:53:45;48517.34;;;-141.90;100.00
5298;BME280;14738;42.668;23.250;2023-03-05T05:56:12;48547.13;;;-141.90;100.00
5298;BME280;14738;42.668;23.250;2023-03-05T05:58:39;48541.19;;;-141.90;100.00
5298;BME280;14738;42.668;23.250;2023-03-05T06:03:45;48531.25;;;-141.90;100.00
5298;BME280;14738;42.668;23.250;2023-03-05T06:06:12;48568.97;;;-141.90;100.00
5298;BME280;14738;42.668;23.250;2023-03-05T06:08:38;48545.16;;;-141.90;100.00
5298;BME280;14738;42.668;23.250;2023-03-05T06:11:04;48557.06;;;-141.90;100.00
5298;BME280;14738;42.668;23.250;2023-03-05T06:13:30;48553.09;;;-141.90;100.00
5298;BME280;14738;42.668;23.250;2023-03-05T06:15:57;48503.47;;;-141.90;100.00
5298;BME280;14738;42.668;23.250;2023-03-05T06:18:23;48533.25;;;-141.90;100.00
5298;BME280;14738;42.668;23.250;2023-03-05T06:20:56;48547.13;;;-141.90;100.00
5298;BME280;14738;42.668;23.250;2023-03-05T06:23:22;48529.28;;;-141.90;100.00
5298;BME280;14738;42.668;23.250;2023-03-05T06:25:48;48489.56;;;-141.90;100.00
5298;BME280;14738;42.668;23.250;2023-03-05T06:28:13;48533.25;;;-141.90;47.88
5298;BME280;14738;42.668;23.250;2023-03-05T06:30:38;48545.16;;;-141.90;46.61
5298;BME280;14738;42.668;23.250;2023-03-05T06:33:04;48513.38;;;-141.90;45.96
5298;BME280;14738;42.668;23.250;2023-03-05T06:35:31;48501.47;;;-141.90;46.11
5298;BME280;14738;42.668;23.250;2023-03-05T06:37:56;48519.34;;;-141.90;46.02
5298;BME280;14738;42.668;23.250;2023-03-05T06:40:21;48497.50;;;-141.90;45.86
5298;BME280;14738;42.668;23.250;2023-03-05T06:42:47;48511.41;;;-141.90;45.90
5298;BME280;14738;42.668;23.250;2023-03-05T06:45:13;48557.06;;;-141.90;45.19
5298;BME280;14738;42.668;23.250;2023-03-05T06:47:38;48517.34;;;-141.90;44.80
5298;BME280;14738;42.668;23.250;2023-03-05T06:50:04;48511.41;;;-141.90;44.14
5298;BME280;14738;42.668;23.250;2023-03-05T06:52:30;48525.31;;;-141.90;44.00
5298;BME280;14738;42.668;23.250;2023-03-05T06:54:55;48517.34;;;-141.90;43.62
5298;BME280;14738;42.668;23.250;2023-03-05T06:57:21;48521.34;;;-141.90;42.72
5298;BME280;14738;42.668;23.250;2023-03-05T06:59:47;48523.31;;;-141.90;42.44
5298;BME280;14738;42.668;23.250;2023-03-05T07:02:13;48533.25;;;-141.90;42.41
5298;BME280;14738;42.668;23.250;2023-03-05T07:04:39;48513.38;;;-141.90;42.26
5298;BME280;14738;42.668;23.250;2023-03-05T07:07:04;48519.34;;;-141.90;41.92
5298;BME280;14738;42.668;23.250;2023-03-05T07:09:30;48499.50;;;-141.90;41.47
5298;BME280;14738;42.668;23.250;2023-03-05T07:11:55;48505.44;;;-141.90;41.09
5298;BME280;14738;42.668;23.250;2023-03-05T07:14:21;48499.50;;;-141.90;41.59
5298;BME280;14738;42.668;23.250;2023-03-05T07:16:47;48531.25;;;-141.90;40.63
5298;BME280;14738;42.668;23.250;2023-03-05T07:19:12;48513.38;;;-141.90;40.30
5298;BME280;14738;42.668;23.250;2023-03-05T07:21:38;48501.47;;;-141.90;40.12
5298;BME280;14738;42.668;23.250;2023-03-05T07:24:04;48503.47;;;-141.90;40.02
5298;BME280;14738;42.668;23.250;2023-03-05T07:26:30;48511.41;;;-141.90;39.56
5298;BME280;14738;42.668;23.250;2023-03-05T07:28:58;48503.47;;;-141.90;39.17
5298;BME280;14738;42.668;23.250;2023-03-05T07:31:26;48509.41;;;-141.90;38.14
5298;BME280;14738;42.668;23.250;2023-03-05T07:33:55;48501.47;;;-141.90;38.55
5298;BME280;14738;42.668;23.250;2023-03-05T07:36:21;48475.66;;;-141.90;38.48
5298;BME280;14738;42.668;23.250;2023-03-05T07:38:47;48485.59;;;-141.90;37.63
5298;BME280;14738;42.668;23.250;2023-03-05T07:41:14;48513.38;;;-141.90;37.66
5298;BME280;14738;42.668;23.250;2023-03-05T07:43:52;48465.75;;;-141.90;38.17
5298;BME280;14738;42.668;23.250;2023-03-05T07:46:20;48525.31;;;-141.90;37.89
5298;BME280;14738;42.668;23.250;2023-03-05T07:48:46;48513.38;;;-141.90;37.73
5298;BME280;14738;42.668;23.250;2023-03-05T07:51:14;48479.63;;;-141.90;37.75
5298;BME280;14738;42.668;23.250;2023-03-05T07:53:44;48491.56;;;-141.90;37.93
5298;BME280;14738;42.668;23.250;2023-03-05T07:56:10;48509.41;;;-141.90;37.83
5298;BME280;14738;42.668;23.250;2023-03-05T07:58:35;48525.31;;;-141.90;37.76
5298;BME280;14738;42.668;23.250;2023-03-05T08:01:01;48479.63;;;-141.90;36.60
5298;BME280;14738;42.668;23.250;2023-03-05T08:03:26;48497.50;;;-141.90;36.30
5298;BME280;14738;42.668;23.250;2023-03-05T08:05:51;48489.56;;;-141.90;37.39
5298;BME280;14738;42.668;23.250;2023-03-05T08:08:17;48501.47;;;-141.90;37.93
5298;BME280;14738;42.668;23.250;2023-03-05T08:10:43;48479.63;;;-141.90;37.50
5298;BME280;14738;42.668;23.250;2023-03-05T08:13:08;48485.59;;;-141.90;37.20
5298;BME280;14738;42.668;23.250;2023-03-05T08:15:35;48501.47;;;-141.90;37.48
5298;BME280;14738;42.668;23.250;2023-03-05T08:18:01;48493.53;;;-141.90;37.84
5298;BME280;14738;42.668;23.250;2023-03-05T08:20:26;48525.31;;;-141.90;38.35
5298;BME280;14738;42.668;23.250;2023-03-05T08:22:52;48515.38;;;-141.90;38.37
5298;BME280;14738;42.668;23.250;2023-03-05T08:25:17;48497.50;;;-141.90;39.02
5298;BME280;14738;42.668;23.250;2023-03-05T08:27:44;48481.63;;;-141.90;39.04
5298;BME280;14738;42.668;23.250;2023-03-05T08:30:13;48495.53;;;-141.90;39.38
5298;BME280;14738;42.668;23.250;2023-03-05T08:32:39;48511.41;;;-141.90;39.80
5298;BME280;14738;42.668;23.250;2023-03-05T08:35:05;48493.53;;;-141.90;39.93
5298;BME280;14738;42.668;23.250;2023-03-05T08:37:31;48465.75;;;-141.90;39.48
5298;BME280;14738;42.668;23.250;2023-03-05T08:39:56;48481.63;;;-141.90;39.52
5298;BME280;14738;42.668;23.250;2023-03-05T08:42:23;48481.63;;;-141.90;38.88
5298;BME280;14738;42.668;23.250;2023-03-05T08:44:51;48507.44;;;-141.90;38.23
5298;BME280;14738;42.668;23.250;2023-03-05T08:47:17;48483.59;;;-141.90;37.68
5298;BME280;14738;42.668;23.250;2023-03-05T08:49:43;48493.53;;;-141.90;37.70
5298;BME280;14738;42.668;23.250;2023-03-05T08:52:09;48509.41;;;-141.90;37.62
5298;BME280;14738;42.668;23.250;2023-03-05T08:54:35;48499.50;;;-141.90;37.58
5298;BME280;14738;42.668;23.250;2023-03-05T08:57:01;48489.56;;;-141.90;38.33
5298;BME280;14738;42.668;23.250;2023-03-05T08:59:27;48497.50;;;-141.90;37.28
5298;BME280;14738;42.668;23.250;2023-03-05T09:01:53;48465.75;;;-141.90;36.28
5298;BME280;14738;42.668;23.250;2023-03-05T09:04:18;48489.56;;;-141.90;36.25
5298;BME280;14738;42.668;23.250;2023-03-05T09:06:43;48489.56;;;-141.90;36.05
5298;BME280;14738;42.668;23.250;2023-03-05T09:09:09;48499.50;;;-141.90;34.70
5298;BME280;14738;42.668;23.250;2023-03-05T09:11:35;48481.63;;;-141.90;34.81
5298;BME280;14738;42.668;23.250;2023-03-05T09:14:03;48485.59;;;-141.90;35.66
5298;BME280;14738;42.668;23.250;2023-03-05T09:16:29;48501.47;;;-141.90;34.53
5298;BME280;14738;42.668;23.250;2023-03-05T09:18:54;48501.47;;;-141.90;35.46
5298;BME280;14738;42.668;23.250;2023-03-05T09:21:20;48479.63;;;-141.90;34.39
5298;BME280;14738;42.668;23.250;2023-03-05T09:23:45;48499.50;;;-141.90;34.46
5298;BME280;14738;42.668;23.250;2023-03-05T09:26:13;48495.53;;;-141.90;33.80
5298;BME280;14738;42.668;23.250;2023-03-05T09:28:40;48507.44;;;-141.90;33.37
5298;BME280;14738;42.668;23.250;2023-03-05T09:31:06;48481.63;;;-141.90;34.09
5298;BME280;14738;42.668;23.250;2023-03-05T09:33:32;48493.53;;;-141.90;34.56
5298;BME280;14738;42.668;23.250;2023-03-05T09:35:59;48485.59;;;-141.90;34.04
5298;BME280;14738;42.668;23.250;2023-03-05T09:38:26;48491.56;;;-141.90;33.62
5298;BME280;14738;42.668;23.250;2023-03-05T09:40:59;48479.63;;;-141.90;34.38
5298;BME280;14738;42.668;23.250;2023-03-05T09:46:44;48493.53;;;-141.90;34.30
5298;BME280;14738;42.668;23.250;2023-03-05T09:51:51;48507.44;;;-141.90;32.60
5298;BME280;14738;42.668;23.250;2023-03-05T09:54:34;48473.69;;;-141.90;33.10
5298;BME280;14738;42.668;23.250;2023-03-05T09:57:03;48497.50;;;-141.90;32.49
5298;BME280;14738;42.668;23.250;2023-03-05T09:59:49;48479.63;;;-141.90;32.54
5298;BME280;14738;42.668;23.250;2023-03-05T10:02:21;48457.81;;;-141.90;33.21
5298;BME280;14738;42.668;23.250;2023-03-05T10:04:52;48473.69;;;-141.90;31.65
5298;BME280;14738;42.668;23.250;2023-03-05T10:07:24;48481.63;;;-141.90;32.10
5298;BME280;14738;42.668;23.250;2023-03-05T10:10:28;48485.59;;;-141.90;30.34
5298;BME280;14738;42.668;23.250;2023-03-05T10:13:04;48499.50;;;-141.90;31.10
5298;BME280;14738;42.668;23.250;2023-03-05T10:15:40;48479.63;;;-141.90;31.54
5298;BME280;14738;42.668;23.250;2023-03-05T10:18:39;48477.66;;;-141.90;32.77
5298;BME280;14738;42.668;23.250;2023-03-05T10:21:17;48469.72;;;-141.90;32.78
5298;BME280;14738;42.668;23.250;2023-03-05T10:32:10;48493.53;;;-141.90;31.67
5298;BME280;14738;42.668;23.250;2023-03-05T10:34:54;48485.59;;;-141.90;30.87
5298;BME280;14738;42.668;23.250;2023-03-05T10:42:57;48487.56;;;-141.90;31.77
5298;BME280;14738;42.668;23.250;2023-03-05T10:45:29;48483.59;;;-141.90;30.98
5298;BME280;14738;42.668;23.250;2023-03-05T10:48:04;48481.63;;;-141.90;30.55
5298;BME280;14738;42.668;23.250;2023-03-05T10:50:46;48483.59;;;-141.90;30.65
5298;BME280;14738;42.668;23.250;2023-03-05T10:53:25;48473.69;;;-141.90;31.46
5298;BME280;14738;42.668;23.250;2023-03-05T10:55:53;48485.59;;;-141.90;31.15
5298;BME280;14738;42.668;23.250;2023-03-05T10:58:22;48437.94;;;-141.90;31.13
5298;BME280;14738;42.668;23.250;2023-03-05T11:01:01;48479.63;;;-141.90;32.12
5298;BME280;14738;42.668;23.250;2023-03-05T11:03:54;48481.63;;;-141.90;30.94
5298;BME280;14738;42.668;23.250;2023-03-05T11:06:31;48485.59;;;-141.90;31.12
5298;BME280;14738;42.668;23.250;2023-03-05T11:09:24;48485.59;;;-141.90;30.75
5298;BME280;14738;42.668;23.250;2023-03-05T11:12:13;48441.91;;;-141.90;31.88
5298;BME280;14738;42.668;23.250;2023-03-05T11:14:43;48465.75;;;-141.90;32.40
5298;BME280;14738;42.668;23.250;2023-03-05T11:17:31;48465.75;;;-141.90;32.22
5298;BME280;14738;42.668;23.250;2023-03-05T11:25:32;48489.56;;;-141.90;32.61
5298;BME280;14738;42.668;23.250;2023-03-05T11:27:59;48501.47;;;-141.90;32.39
5298;BME280;14738;42.668;23.250;2023-03-05T11:30:31;48513.38;;;-141.90;32.32
5298;BME280;14738;42.668;23.250;2023-03-05T11:33:19;48479.63;;;-141.90;32.43
5298;BME280;14738;42.668;23.250;2023-03-05T11:35:46;48481.63;;;-141.90;32.63
5298;BME280;14738;42.668;23.250;2023-03-05T11:38:23;48493.53;;;-141.90;32.95
5298;BME280;14738;42.668;23.250;2023-03-05T11:40:49;48473.69;;;-141.90;33.25
5298;BME280;14738;42.668;23.250;2023-03-05T11:43:18;48493.53;;;-141.90;32.19
5298;BME280;14738;42.668;23.250;2023-03-05T11:45:45;48507.44;;;-141.90;32.76
5298;BME280;14738;42.668;23.250;2023-03-05T11:48:19;48513.38;;;-141.90;32.31
5298;BME280;14738;42.668;23.250;2023-03-05T11:50:52;48485.59;;;-141.90;32.35
5298;BME280;14738;42.668;23.250;2023-03-05T11:53:23;48477.66;;;-141.90;32.00
5298;BME280;14738;42.668;23.250;2023-03-05T11:58:49;48507.44;;;-141.90;32.03
5298;BME280;14738;42.668;23.250;2023-03-05T12:01:26;48477.66;;;-141.90;32.50
5298;BME280;14738;42.668;23.250;2023-03-05T12:03:52;48471.69;;;-141.90;32.61
5298;BME280;14738;42.668;23.250;2023-03-05T12:08:50;48473.69;;;-141.90;34.11
5298;BME280;14738;42.668;23.250;2023-03-05T12:11:29;48457.81;;;-141.90;33.77
5298;BME280;14738;42.668;23.250;2023-03-05T12:17:36;48477.66;;;-141.90;33.67
5298;BME280;14738;42.668;23.250;2023-03-05T12:22:19;48453.81;;;-141.90;33.97
5298;BME280;14738;42.668;23.250;2023-03-05T12:24:45;48473.69;;;-141.90;33.50
5298;BME280;14738;42.668;23.250;2023-03-05T12:27:12;48491.56;;;-141.90;33.45
5298;BME280;14738;42.668;23.250;2023-03-05T12:29:45;48449.84;;;-141.90;33.12
5298;BME280;14738;42.668;23.250;2023-03-05T12:34:48;48487.56;;;-141.90;33.10
5298;BME280;14738;42.668;23.250;2023-03-05T12:40:31;48465.75;;;-141.90;32.49
5298;BME280;14738;42.668;23.250;2023-03-05T12:47:39;48471.69;;;-141.90;32.74
5298;BME280;14738;42.668;23.250;2023-03-05T12:52:51;48483.59;;;-141.90;33.55
5298;BME280;14738;42.668;23.250;2023-03-05T12:55:31;48489.56;;;-141.90;33.22
5298;BME280;14738;42.668;23.250;2023-03-05T13:03:55;48447.88;;;-141.90;32.48
5298;BME280;14738;42.668;23.250;2023-03-05T13:06:23;48481.63;;;-141.90;32.00
5298;BME280;14738;42.668;23.250;2023-03-05T13:11:30;48465.75;;;-141.90;32.71
5298;BME280;14738;42.668;23.250;2023-03-05T13:13:57;48497.50;;;-141.90;32.36
5298;BME280;14738;42.668;23.250;2023-03-05T13:16:36;48489.56;;;-141.90;31.35
5298;BME280;14738;42.668;23.250;2023-03-05T13:19:03;48495.53;;;-141.90;32.02
5298;BME280;14738;42.668;23.250;2023-03-05T13:21:39;48501.47;;;-141.90;31.07
5298;BME280;14738;42.668;23.250;2023-03-05T13:24:15;48447.88;;;-141.90;31.00
5298;BME280;14738;42.668;23.250;2023-03-05T13:26:40;48461.78;;;-141.90;32.18
5298;BME280;14738;42.668;23.250;2023-03-05T13:29:12;48477.66;;;-141.90;32.40
5298;BME280;14738;42.668;23.250;2023-03-05T13:31:45;48485.59;;;-141.90;32.75
5298;BME280;14738;42.668;23.250;2023-03-05T13:34:27;48501.47;;;-141.90;32.57
5298;BME280;14738;42.668;23.250;2023-03-05T13:36:55;48477.66;;;-141.90;33.21
5298;BME280;14738;42.668;23.250;2023-03-05T13:39:29;48493.53;;;-141.90;33.59
5298;BME280;14738;42.668;23.250;2023-03-05T13:44:24;48449.84;;;-141.90;33.11